Terminal Aerodrome Forecast
Issued by NWS

Home | Current Version | Previous Version | Text Only | Print | Product List | Glossary On
Versions: 1 2 3 4 5 6 7 8 9 10 11 12 13 14 15 16 17 18 19 20 21 22 23 24 25 26 27 28 29 30 31 32 33 34 35 36 37 38 39 40 41 42 43 44 45 46 47 48 49 50
000
FTUS44 KFWD 160603 AAA
TAFAFW
TAF AMD
KAFW 160603Z 1606/1706 17014KT P6SM SCT250
     FM160630 17017KT P6SM VCTS BKN060CB
      TEMPO 1607/1611 34020G30KT 5SM -TSRA
     FM161500 18017KT P6SM SCT035 BKN250
     FM170200 17014KT P6SM VCTS BKN050CB
     FM170500 17014KT P6SM OVC250=

USA.gov is the U.S. government's official web portal to all federal, state and local government web resources and services.